Main page
METAR-TAF:

METAR-TAF

Airports :

Mehrabad International Airport

Tehran, Iran

latitude: 35-41N, longitude: 051-21E, elevation: 1204 m

Current weather observation

The report was made 31 minutes ago, at 17:30 UTC
Wind 4 kt from the Northwest
Temperature 4°C
Humidity 44%
Pressure 1025 hPa
Visibility: 8000 m
Few clouds at a height of 10000 ft

METAR: OIII 271730Z 31004KT 8000 FEW100 04/M07 Q1024 A3026

Time: 21:31 (18:01 UTC)

Forecast

The report was made 31 minutes ago, at 17:30 UTC
Forecast valid from 27 at 18 UTC to 28 at 24 UTC
Wind 8 kt from the Southeast
Visibility: 4000 m
haze
Temporary
from 28 at 00 UTC to 28 at 05 UTC
Visibility: 3000 m
haze
Becoming
from 28 at 09 UTC to 28 at 10 UTC
Visibility: 7000 m
Becoming
from 28 at 12 UTC to 28 at 14 UTC
Few clouds at a height of 4000 ft
Scattered clouds at a height of 10000 ft

TAF: OIII 271730Z 2718/2824 14008KT 4000 HZ NSC TEMPO 2800/2805 3000 HZ BECMG 2809/2810 7000 BECMG 2812/2814 FEW040 SCT100

Weather observations and forecasts of more than 4000 airports (METAR and TAF reports).

The available stations are represented by yellow and red dots on the map.

Hover mouse over dot to see the name of the station.

Then click to see weather observations and forecasts.

To change the map : click on the green buttons with a black cross to zoom in, on the green button with a dash to zoom out, or on the green arrows for adjacent maps.


METAR-TAF: